Terminal Aerodrome Forecast
Issued by NWS

Home | Current Version | Previous Version | Graphics & Text | Print | Product List | Glossary On
Versions: 1 2 3 4 5 6 7 8 9 10 11 12 13 14 15 16
000
FTUS43 KGRB 220500
TAFATW
TAF
KATW 220520Z 2206/2306 33013G20KT P6SM SCT045
     FM221500 33018G27KT P6SM SCT050
      TEMPO 2217/2221 BKN050
     FM222300 35009KT P6SM FEW060
     FM230100 04003KT P6SM SKC=

USA.gov is the U.S. government's official web portal to all federal, state and local government web resources and services.